createdAt,value
2023-05-17T00:03:42.878Z,98477.58
2023-05-17T00:08:44.719Z,98461.58
2023-05-17T00:13:46.488Z,98461.73
2023-05-17T00:18:48.343Z,98474.98
2023-05-17T00:23:50.233Z,98471.21
2023-05-17T00:28:51.986Z,98460.70
2023-05-17T00:33:54.088Z,98464.13
2023-05-17T00:38:55.924Z,98467.77
2023-05-17T00:43:57.651Z,98465.35
2023-05-17T00:48:59.459Z,98459.98
2023-05-17T00:54:01.385Z,98466.16
2023-05-17T00:59:06.850Z,98468.73
2023-05-17T01:04:09.682Z,98468.57
2023-05-17T01:09:12.301Z,98461.52
2023-05-17T01:14:23.663Z,98466.66
2023-05-17T01:19:50.145Z,98459.11
2023-05-17T01:25:16.218Z,98474.05
2023-05-17T01:30:20.764Z,98473.02
2023-05-17T01:35:22.566Z,98462.19
2023-05-17T01:40:24.757Z,98452.02
2023-05-17T01:45:34.226Z,98457.02
2023-05-17T01:50:38.511Z,98459.25
2023-05-17T01:55:50.706Z,98472.66
2023-05-17T02:00:55.648Z,98468.86
2023-05-17T02:05:57.449Z,98483.48
2023-05-17T02:10:59.285Z,98491.89
2023-05-17T02:16:01.914Z,98491.70
2023-05-17T02:21:04.447Z,98496.14
2023-05-17T02:26:06.235Z,98497.48
2023-05-17T02:31:09.732Z,98498.82
2023-05-17T02:36:11.507Z,98492.96
2023-05-17T02:41:13.620Z,98487.79
2023-05-17T02:46:15.653Z,98491.20
2023-05-17T02:51:18.986Z,98496.52
2023-05-17T02:56:20.851Z,98494.77
2023-05-17T03:01:23.106Z,98495.10
2023-05-17T03:06:25.352Z,98502.11
2023-05-17T03:11:27.606Z,98512.36
2023-05-17T03:16:31.852Z,98516.27
2023-05-17T03:21:34.587Z,98520.52
2023-05-17T03:26:36.384Z,98517.89
2023-05-17T03:31:38.474Z,98527.48
2023-05-17T03:36:40.778Z,98537.77
2023-05-17T03:41:43.216Z,98544.23
2023-05-17T03:46:46.226Z,98548.10
2023-05-17T03:51:49.129Z,98556.83
2023-05-17T03:56:52.423Z,98556.55
2023-05-17T04:07:13.720Z,98571.55
2023-05-17T04:12:16.443Z,98566.96
2023-05-17T04:17:19.333Z,98572.59
2023-05-17T04:22:22.009Z,98590.77
2023-05-17T04:27:24.370Z,98594.88
2023-05-17T04:32:28.129Z,98597.08
2023-05-17T04:37:31.216Z,98600.04
2023-05-17T04:42:37.041Z,98613.54
2023-05-17T04:47:39.578Z,98620.83
2023-05-17T04:52:41.807Z,98618.30
2023-05-17T04:57:44.726Z,98621.73
2023-05-17T05:02:49.861Z,98624.81
2023-05-17T05:07:52.228Z,98632.87
2023-05-17T05:12:54.880Z,98640.84
2023-05-17T05:17:58.449Z,98649.08
2023-05-17T05:23:01.128Z,98658.34
2023-05-17T05:28:02.995Z,98661.27
2023-05-17T05:33:05.379Z,98657.54
2023-05-17T05:38:07.793Z,98664.88
2023-05-17T05:43:10.557Z,98680.52
2023-05-17T05:48:15.737Z,98684.15
2023-05-17T05:53:19.806Z,98683.33
2023-05-17T05:58:27.085Z,98692.11
2023-05-17T06:03:29.801Z,98699.63
2023-05-17T06:08:31.527Z,98697.00
2023-05-17T06:13:33.285Z,98705.70
2023-05-17T06:18:35.278Z,98718.84
2023-05-17T06:23:37.164Z,98729.23
2023-05-17T06:28:39.182Z,98750.02
2023-05-17T06:33:40.972Z,98752.75
2023-05-17T06:38:42.762Z,98758.90
2023-05-17T06:43:45.813Z,98769.12
2023-05-17T06:48:50.265Z,98773.39
2023-05-17T06:53:53.485Z,98776.09
2023-05-17T06:58:55.421Z,98781.45
2023-05-17T07:03:57.395Z,98779.31
2023-05-17T07:08:59.259Z,98778.59
2023-05-17T07:14:01.015Z,98782.08
2023-05-17T07:19:03.192Z,98784.58
2023-05-17T07:24:05.286Z,98803.56
2023-05-17T07:29:07.020Z,98810.45
2023-05-17T07:34:08.869Z,98814.40
2023-05-17T07:39:10.622Z,98815.34
2023-05-17T07:44:12.383Z,98820.05
2023-05-17T07:49:14.753Z,98823.17
2023-05-17T07:54:29.905Z,98835.71
2023-05-17T07:59:31.743Z,98842.27
2023-05-17T08:04:33.538Z,98843.61
2023-05-17T08:09:35.294Z,98856.73
2023-05-17T08:14:36.985Z,98861.08
2023-05-17T08:19:39.542Z,98862.80
2023-05-17T08:24:41.664Z,98866.88
2023-05-17T08:29:43.562Z,98872.31
2023-05-17T08:34:45.896Z,98877.86
2023-05-17T08:39:49.324Z,98877.83
2023-05-17T08:44:52.955Z,98876.95
2023-05-17T08:49:57.712Z,98873.03
2023-05-17T08:55:01.467Z,98875.54
2023-05-17T09:00:13.596Z,98879.34
2023-05-17T09:05:15.457Z,98877.66
2023-05-17T09:10:17.393Z,98879.46
2023-05-17T09:15:22.883Z,98877.48
2023-05-17T09:20:35.298Z,98880.42
2023-05-17T09:25:37.431Z,98891.73
2023-05-17T09:30:42.376Z,98901.69
2023-05-17T09:35:44.219Z,98901.83
2023-05-17T09:40:48.264Z,98912.02
2023-05-17T09:45:59.626Z,98912.30
2023-05-17T09:51:01.533Z,98913.79
2023-05-17T09:56:05.596Z,98920.05
2023-05-17T10:01:08.630Z,98926.27
2023-05-17T10:06:19.674Z,98928.67
2023-05-17T10:11:37.247Z,98934.36
2023-05-17T10:16:39.571Z,98940.79
2023-05-17T10:21:42.923Z,98940.65
2023-05-17T10:26:45.596Z,98948.66
2023-05-17T10:31:50.302Z,98948.27
2023-05-17T10:36:52.634Z,98954.14
2023-05-17T10:42:07.132Z,98959.52
2023-05-17T10:47:16.529Z,98973.27
2023-05-17T10:52:21.793Z,98973.98
2023-05-17T10:57:49.674Z,98979.38
2023-05-17T11:03:11.435Z,98983.39
2023-05-17T11:08:18.046Z,98992.90
2023-05-17T11:13:25.304Z,98993.13
2023-05-17T11:18:30.818Z,98998.68
2023-05-17T11:23:35.508Z,98995.64
2023-05-17T11:28:39.155Z,98994.89
2023-05-17T11:33:45.743Z,98994.42
2023-05-17T11:39:10.762Z,99001.41
2023-05-17T11:44:13.612Z,99006.16
2023-05-17T11:49:26.950Z,99010.96
2023-05-17T11:54:40.326Z,99014.54
2023-05-17T11:59:43.264Z,99021.95
2023-05-17T12:04:45.087Z,99033.14
2023-05-17T12:09:47.000Z,99042.20
2023-05-17T12:14:50.694Z,99046.51
2023-05-17T12:19:54.196Z,99051.98
2023-05-17T12:24:56.270Z,99053.77
2023-05-17T12:29:58.087Z,99056.83
2023-05-17T12:35:00.031Z,99061.98
2023-05-17T12:40:05.049Z,99071.35
2023-05-17T12:45:07.668Z,99074.33
2023-05-17T12:50:10.155Z,99069.67
2023-05-17T12:55:13.574Z,99073.73
2023-05-17T13:00:16.481Z,99078.77
2023-05-17T13:05:21.519Z,99081.77
2023-05-17T13:10:26.284Z,99085.34
2023-05-17T13:15:33.110Z,99088.45
2023-05-17T13:20:34.824Z,99089.05
2023-05-17T13:25:39.276Z,99081.96
2023-05-17T13:30:41.093Z,99090.11
2023-05-17T13:35:42.933Z,99091.76
2023-05-17T13:40:44.901Z,99097.94
2023-05-17T13:45:47.284Z,99104.33
2023-05-17T13:50:49.013Z,99107.81
2023-05-17T13:55:50.785Z,99105.52
2023-05-17T14:00:52.818Z,99114.27
2023-05-17T14:05:54.764Z,99117.24
2023-05-17T14:10:56.741Z,99110.13
2023-05-17T14:15:58.472Z,99113.77
2023-05-17T14:21:01.330Z,99120.61
2023-05-17T14:26:07.135Z,99131.22
2023-05-17T14:31:09.915Z,99138.12
2023-05-17T14:36:13.869Z,99142.02
2023-05-17T14:41:18.431Z,99140.44
2023-05-17T14:46:20.332Z,99144.13
2023-05-17T14:51:22.822Z,99148.52
2023-05-17T14:56:25.407Z,99150.70
2023-05-17T15:01:27.295Z,99153.12
2023-05-17T15:06:29.071Z,99159.20
2023-05-17T15:11:31.433Z,99158.46
2023-05-17T15:16:34.497Z,99154.11
2023-05-17T15:21:36.390Z,99171.50
2023-05-17T15:26:38.356Z,99172.70
2023-05-17T15:31:40.140Z,99173.39
2023-05-17T15:36:42.406Z,99178.98
2023-05-17T15:41:45.553Z,99169.39
2023-05-17T15:46:47.207Z,99164.30
2023-05-17T15:51:49.236Z,99166.81
2023-05-17T15:56:51.168Z,99165.12
2023-05-17T16:01:52.905Z,99174.88
2023-05-17T16:06:54.632Z,99179.31
2023-05-17T16:11:56.291Z,99182.92
2023-05-17T16:16:58.237Z,99187.75
2023-05-17T16:22:00.457Z,99188.45
2023-05-17T16:27:03.769Z,99180.01
2023-05-17T16:32:07.823Z,99183.95
2023-05-17T16:37:09.671Z,99186.70
2023-05-17T16:42:11.497Z,99188.73
2023-05-17T16:47:13.359Z,99190.26
2023-05-17T16:52:15.318Z,99198.23
2023-05-17T16:57:17.099Z,99202.77
2023-05-17T17:02:20.096Z,99208.59
2023-05-17T17:07:21.908Z,99209.27
2023-05-17T17:12:25.289Z,99210.16
2023-05-17T17:17:29.733Z,99217.16
2023-05-17T17:22:32.176Z,99227.69
2023-05-17T17:27:34.892Z,99242.38
2023-05-17T17:32:36.784Z,99254.70
2023-05-17T17:37:38.603Z,99260.39
2023-05-17T17:42:40.600Z,99262.85
2023-05-17T17:47:42.460Z,99269.88
2023-05-17T17:52:44.325Z,99271.93
2023-05-17T17:57:46.384Z,99262.13
2023-05-17T18:02:48.179Z,99267.98
2023-05-17T18:07:49.997Z,99260.39
2023-05-17T18:12:52.007Z,99257.08
2023-05-17T18:17:54.906Z,99264.46
2023-05-17T18:22:56.730Z,99270.70
2023-05-17T18:27:58.445Z,99274.81
2023-05-17T18:33:00.306Z,99275.73
2023-05-17T18:38:02.147Z,99280.45
2023-05-17T18:43:04.117Z,99290.48
2023-05-17T18:48:06.508Z,99294.88
2023-05-17T18:53:08.641Z,99300.83
2023-05-17T18:58:10.504Z,99313.41
2023-05-17T19:03:12.314Z,99314.42
2023-05-17T19:08:14.119Z,99317.69
2023-05-17T19:13:15.834Z,99317.48
2023-05-17T19:18:17.677Z,99315.40
2023-05-17T19:23:21.324Z,99311.52
2023-05-17T19:28:23.170Z,99316.09
2023-05-17T19:33:24.936Z,99319.97
2023-05-17T19:38:28.984Z,99330.48
2023-05-17T19:43:32.333Z,99340.38
2023-05-17T19:48:34.079Z,99344.50
2023-05-17T19:53:51.013Z,99351.92
2023-05-17T19:58:54.903Z,99352.42
2023-05-17T20:03:56.767Z,99359.17
2023-05-17T20:08:58.583Z,99364.42
2023-05-17T20:14:00.489Z,99365.86
2023-05-17T20:19:02.445Z,99370.19
2023-05-17T20:24:06.661Z,99376.27
2023-05-17T20:29:08.611Z,99380.77
2023-05-17T20:34:10.954Z,99377.65
2023-05-17T20:39:15.185Z,99378.89
2023-05-17T20:44:18.906Z,99380.27
2023-05-17T20:49:21.246Z,99379.16
2023-05-17T20:54:25.386Z,99386.66
2023-05-17T20:59:27.140Z,99393.98
2023-05-17T21:04:28.992Z,99401.33
2023-05-17T21:09:32.790Z,99399.29
2023-05-17T21:14:40.875Z,99397.06
2023-05-17T21:19:42.763Z,99396.88
2023-05-17T21:24:44.563Z,99394.91
2023-05-17T21:29:46.276Z,99394.00
2023-05-17T21:34:48.120Z,99393.66
2023-05-17T21:39:50.963Z,99401.13
2023-05-17T21:44:54.303Z,99402.45
2023-05-17T21:50:03.684Z,99399.67
2023-05-17T21:55:06.472Z,99396.79
2023-05-17T22:00:12.749Z,99392.00
2023-05-17T22:05:14.681Z,99390.11
2023-05-17T22:10:17.864Z,99392.13
2023-05-17T22:15:21.967Z,99401.40
2023-05-17T22:20:24.053Z,99403.90
2023-05-17T22:25:26.154Z,99408.66
2023-05-17T22:30:28.041Z,99411.96
2023-05-17T22:35:29.781Z,99410.48
2023-05-17T22:40:32.032Z,99410.14
2023-05-17T22:45:34.790Z,99408.44
2023-05-17T22:50:36.820Z,99412.09
2023-05-17T22:55:38.586Z,99407.60
2023-05-17T23:00:40.738Z,99403.95
2023-05-17T23:05:43.429Z,99406.08
2023-05-17T23:10:51.675Z,99400.40
2023-05-17T23:15:58.013Z,99403.38
2023-05-17T23:21:00.303Z,99404.20
2023-05-17T23:26:05.472Z,99403.17
2023-05-17T23:31:08.519Z,99404.48
2023-05-17T23:36:11.120Z,99403.77
2023-05-17T23:41:18.277Z,99402.27
2023-05-17T23:46:22.800Z,99397.66
2023-05-17T23:51:26.707Z,99395.88
2023-05-17T23:56:28.797Z,99385.66
